AirNav   Pilot Hours Calculator
 
 1002 users online  

7M6 Paris Municipal Airport
Paris (Subiaco), Arkansas, USA

GOING TO PARIS (SUBIACO)?


FAA INFORMATION EFFECTIVE 16 JUNE 2022

Location

FAA Identifier: 7M6
Lat/Long: 35-17-56.8150N 093-40-53.8100W
35-17.946917N 093-40.896833W
35.2991153,-93.6816139
(estimated)
Elevation: 430 ft. / 131 m (estimated)
Variation: 05E (1985)
From city: 2 miles E of central business district of the associated city
Time zone: UTC -5 (UTC -6 during Standard Time)
Zip code: 72855

Airport Operations

Airport use: Open to the public
Control tower: no
ARTCC: MEMPHIS CENTER
FSS: JONESBORO FLIGHT SERVICE STATION
NOTAMs facility: JBR (NOTAM-D service available)
Attendance: UNATNDD
Wind indicator: lighted
Segmented circle: no
Lights: ACTVT MIRL RWY 03/21 - CTAF
Beacon: white-green (lighted land airport)
Operates sunset to sunrise.

Airport Communications

CTAF: 122.9

Airport Services

Parking: hangars and tiedowns

Runway Information

Runway 3/21

Dimensions: 2710 x 60 ft. / 826 x 18 m
Surface: asphalt, in good condition
Weight bearing capacity: 
Single wheel: 10.0
Runway edge lights: medium intensity
RUNWAY 3  RUNWAY 21
Latitude: 35-17.773117N35-18.120717N
Longitude: 093-41.067967W093-40.725683W
Elevation: 422.0 ft.403.0 ft.
Traffic pattern: leftleft
Runway heading: 034 magnetic, 039 true214 magnetic, 219 true
Markings: NSTD, in good conditionNSTD, in good condition
Visual slope indicator: 2-light PAPI on left (3.00 degrees glide path)
Touchdown point: yes, no lightsyes, no lights
Obstructions: 15 ft. road, 450 ft. from runway, 16:1 slope to clear30 ft. tree, 350 ft. from runway, 270 ft. left of centerline, 5:1 slope to clear

Airport Ownership and Management from official FAA records

Ownership: Publicly-owned
Owner: CITY OF PARIS
PO BOX 271
PARIS, AR 72855
Phone 479-963-2450
Manager: JOHN MINDEN
P.O. BOX 271
PARIS, AR 72855
Phone 479-963-2450

Airport Operational Statistics

Aircraft based on the field: 5
Single engine airplanes: 4
Helicopters: 1
    
Aircraft operations: avg 63/week *
91% local general aviation
9% transient general aviation
* for 12-month period ending 30 November 2021

Additional Remarks

AGRICULTURE OPS FEB-OCT BLO 500 FT AGL.
FOR CD CTC MEMPHIS ARTCC AT 901-368-8453/8449.

Instrument Procedures

There are no published instrument procedures at 7M6.

Some nearby airports with instrument procedures:

7M5 - Ozark/Franklin County Airport (15 nm NW)
H35 - Clarksville Municipal Airport (16 nm NE)
32A - Danville Municipal Airport (18 nm SE)
KRUE - Russellville Regional Airport (29 nm E)
KFSM - Fort Smith Regional Airport (34 nm W)
 
Loc | Ops | Rwys | IFR | FBO | Links
Com | Nav | Svcs | Stats | Notes
Area around 7M6 (Paris Municipal Airport)
 
Road maps at: MapQuest Bing Google
 
Aerial photo
WARNING: Photo may not be current or correct
Aerial photo of 7M6 (Paris Municipal Airport)
Photo courtesy of the Arkansas Department of Aeronautics
Taken in the Spring of 2007

Do you have a better or more recent aerial photo of Paris Municipal Airport that you would like to share? If so, please send us your photo.

 
Sectional chart

 
Airport distance calculator
Flying to Paris Municipal Airport? Find the distance to fly.

From to 7M6

Sunrise and sunset
Times for 26-Jun-2022
 Local
(UTC-5)
 Zulu
(UTC)
Morning civil twilight05:3310:33
Sunrise06:0311:03
Sunset20:3201:32
Evening civil twilight21:0202:02

Current date and time
Zulu (UTC)  26-Jun-2022 14:20:38
Local (UTC-5)  26-Jun-2022 09:20:38
 
METAR
KRUE 
29nm E 
261353Z AUTO VRB05KT 10SM CLR 30/24 A3008 RMK AO2 SLP178 T03000239 $
KFSM 
34nm W 
261353Z 04005KT 10SM CLR 31/22 A3010 RMK AO2 SLP187 T03060222
KMWT 
45nm S 
261353Z AUTO 00000KT 10SM CLR 29/23 A3008 RMK AO2 SLP171 T02940233 $
KRKR 
49nm W 
261355Z AUTO 03003KT 10SM CLR 28/23 A3011 RMK AO2
KFYV 
49nm NW 
261353Z VRB05KT 10SM CLR 27/19 A3018 RMK AO2 SLP203 T02720194
TAF
KFSM 
34nm W 
261120Z 2612/2712 02005KT P6SM SCT250 FM261500 35008KT P6SM SCT250 FM261800 02012KT P6SM OVC025 FM262100 02012G20KT P6SM BKN250 FM270300 01009KT P6SM BKN250
NOTAMs
Click for the latest NOTAMs
NOTAMs are issued by the DoD/FAA and will open in a separate window not controlled by AirNav.

 

 
 

Would you like to see your business listed on this page?

 If your business provides an interesting product or service to pilots, flight crews, aircraft, or users of the Paris Municipal Airport, you should consider listing it here.  To start the listing process, click on the button below
 
Add a business
 

Other Pages about Paris Municipal Airport

Update a link
 
Copyright © AirNav, LLC. All rights reserved. Privacy Policy  Contact